sensor_id;sensor_type;location;lat;lon;timestamp;pressure;altitude;pressure_sealevel;temperature;humidity
40502;BME280;29631;49.168;9.848;2023-07-24T00:02:03;96065.81;;;24.69;76.45
40502;BME280;29631;49.168;9.848;2023-07-24T00:04:31;96087.91;;;24.71;77.00
40502;BME280;29631;49.168;9.848;2023-07-24T00:06:57;96067.94;;;24.72;77.46
40502;BME280;29631;49.168;9.848;2023-07-24T00:09:23;96035.19;;;24.65;77.85
40502;BME280;29631;49.168;9.848;2023-07-24T00:11:49;96014.59;;;24.69;77.81
40502;BME280;29631;49.168;9.848;2023-07-24T00:14:17;95991.44;;;24.68;78.48
40502;BME280;29631;49.168;9.848;2023-07-24T00:16:43;95995.59;;;24.74;78.40
40502;BME280;29631;49.168;9.848;2023-07-24T00:19:09;95974.78;;;24.66;78.71
40502;BME280;29631;49.168;9.848;2023-07-24T00:21:35;95993.28;;;24.59;78.36
40502;BME280;29631;49.168;9.848;2023-07-24T00:24:00;96022.75;;;24.55;78.71
40502;BME280;29631;49.168;9.848;2023-07-24T00:26:26;96025.28;;;24.52;79.54
40502;BME280;29631;49.168;9.848;2023-07-24T00:28:52;96055.66;;;24.44;79.66
40502;BME280;29631;49.168;9.848;2023-07-24T00:31:18;96057.66;;;24.38;80.10
40502;BME280;29631;49.168;9.848;2023-07-24T00:33:43;96029.91;;;24.38;80.74
40502;BME280;29631;49.168;9.848;2023-07-24T00:36:09;95988.63;;;24.29;80.38
40502;BME280;29631;49.168;9.848;2023-07-24T00:38:35;95993.66;;;24.22;80.78
40502;BME280;29631;49.168;9.848;2023-07-24T00:41:01;95984.69;;;24.13;80.64
40502;BME280;29631;49.168;9.848;2023-07-24T00:43:26;95963.22;;;24.00;81.13
40502;BME280;29631;49.168;9.848;2023-07-24T00:45:54;95970.84;;;23.84;81.67
40502;BME280;29631;49.168;9.848;2023-07-24T00:48:21;95969.97;;;23.75;82.01
40502;BME280;29631;49.168;9.848;2023-07-24T00:50:47;95972.53;;;23.80;82.20
40502;BME280;29631;49.168;9.848;2023-07-24T00:53:15;95980.50;;;23.85;81.39
40502;BME280;29631;49.168;9.848;2023-07-24T00:55:42;95993.97;;;23.85;81.91
40502;BME280;29631;49.168;9.848;2023-07-24T00:58:11;95992.28;;;23.89;82.49
40502;BME280;29631;49.168;9.848;2023-07-24T01:00:39;95984.56;;;23.96;82.19
40502;BME280;29631;49.168;9.848;2023-07-24T01:03:05;95970.78;;;23.98;81.40
40502;BME280;29631;49.168;9.848;2023-07-24T01:05:31;95975.16;;;24.07;81.85
40502;BME280;29631;49.168;9.848;2023-07-24T01:07:57;95967.94;;;24.16;82.64
40502;BME280;29631;49.168;9.848;2023-07-24T01:10:23;95961.53;;;24.12;82.51
40502;BME280;29631;49.168;9.848;2023-07-24T01:13:04;95956.78;;;24.09;82.87
40502;BME280;29631;49.168;9.848;2023-07-24T01:16:00;95955.56;;;24.15;83.64
40502;BME280;29631;49.168;9.848;2023-07-24T01:18:28;95936.19;;;24.13;82.94
40502;BME280;29631;49.168;9.848;2023-07-24T01:20:57;95948.13;;;24.20;82.96
40502;BME280;29631;49.168;9.848;2023-07-24T01:26:16;95938.03;;;24.26;82.91
40502;BME280;29631;49.168;9.848;2023-07-24T01:28:42;95930.06;;;24.21;83.28
40502;BME280;29631;49.168;9.848;2023-07-24T01:31:07;95930.66;;;24.18;83.23
40502;BME280;29631;49.168;9.848;2023-07-24T01:33:34;95932.44;;;24.22;83.27
40502;BME280;29631;49.168;9.848;2023-07-24T01:36:02;95926.75;;;24.24;83.69
40502;BME280;29631;49.168;9.848;2023-07-24T01:38:31;95923.41;;;24.18;83.71
40502;BME280;29631;49.168;9.848;2023-07-24T01:40:58;95931.66;;;24.22;83.91
40502;BME280;29631;49.168;9.848;2023-07-24T01:43:25;95920.41;;;24.20;84.07
40502;BME280;29631;49.168;9.848;2023-07-24T01:45:54;95915.19;;;24.23;84.25
40502;BME280;29631;49.168;9.848;2023-07-24T01:48:19;95921.34;;;24.24;83.96
40502;BME280;29631;49.168;9.848;2023-07-24T01:50:45;95912.81;;;24.22;84.10
40502;BME280;29631;49.168;9.848;2023-07-24T01:53:11;95915.19;;;24.23;83.97
40502;BME280;29631;49.168;9.848;2023-07-24T01:55:37;95914.50;;;24.18;84.12
40502;BME280;29631;49.168;9.848;2023-07-24T01:58:02;95912.31;;;24.20;84.24
40502;BME280;29631;49.168;9.848;2023-07-24T02:00:28;95917.19;;;24.18;84.21
40502;BME280;29631;49.168;9.848;2023-07-24T02:02:54;95907.19;;;24.10;84.58
40502;BME280;29631;49.168;9.848;2023-07-24T02:05:20;95897.13;;;24.02;84.85
40502;BME280;29631;49.168;9.848;2023-07-24T02:07:46;95911.75;;;24.10;84.23
40502;BME280;29631;49.168;9.848;2023-07-24T02:10:11;95901.91;;;24.05;84.67
40502;BME280;29631;49.168;9.848;2023-07-24T02:12:37;95910.97;;;24.09;84.43
40502;BME280;29631;49.168;9.848;2023-07-24T02:15:03;95911.44;;;24.11;85.17
40502;BME280;29631;49.168;9.848;2023-07-24T02:17:29;95906.88;;;24.12;85.03
40502;BME280;29631;49.168;9.848;2023-07-24T02:19:54;95916.56;;;24.13;85.05
40502;BME280;29631;49.168;9.848;2023-07-24T02:22:20;95914.13;;;24.11;84.84
40502;BME280;29631;49.168;9.848;2023-07-24T02:24:46;95910.97;;;24.09;84.63
40502;BME280;29631;49.168;9.848;2023-07-24T02:27:30;95917.47;;;24.08;85.13
40502;BME280;29631;49.168;9.848;2023-07-24T02:29:57;95920.53;;;23.93;84.90
40502;BME280;29631;49.168;9.848;2023-07-24T02:32:23;95909.50;;;23.81;84.73
40502;BME280;29631;49.168;9.848;2023-07-24T02:34:50;95913.59;;;23.79;85.24
40502;BME280;29631;49.168;9.848;2023-07-24T02:37:16;95919.78;;;23.79;85.12
40502;BME280;29631;49.168;9.848;2023-07-24T02:39:42;95929.13;;;23.82;85.39
40502;BME280;29631;49.168;9.848;2023-07-24T02:42:08;95913.31;;;23.67;84.94
40502;BME280;29631;49.168;9.848;2023-07-24T02:44:37;95922.38;;;23.49;85.76
40502;BME280;29631;49.168;9.848;2023-07-24T02:47:03;95922.31;;;23.27;85.62
40502;BME280;29631;49.168;9.848;2023-07-24T02:49:29;95921.13;;;23.06;86.29
40502;BME280;29631;49.168;9.848;2023-07-24T02:51:55;95911.38;;;22.83;86.66
40502;BME280;29631;49.168;9.848;2023-07-24T02:54:21;95916.66;;;22.75;86.78
40502;BME280;29631;49.168;9.848;2023-07-24T02:56:46;95919.91;;;22.72;87.10
40502;BME280;29631;49.168;9.848;2023-07-24T02:59:12;95903.38;;;22.65;87.38
40502;BME280;29631;49.168;9.848;2023-07-24T03:01:38;95899.22;;;22.59;87.06
40502;BME280;29631;49.168;9.848;2023-07-24T03:04:04;95906.06;;;22.65;87.11
40502;BME280;29631;49.168;9.848;2023-07-24T03:06:31;95907.09;;;22.69;87.54
40502;BME280;29631;49.168;9.848;2023-07-24T03:08:57;95894.75;;;22.68;87.17
40502;BME280;29631;49.168;9.848;2023-07-24T03:11:22;95901.22;;;22.67;87.76
40502;BME280;29631;49.168;9.848;2023-07-24T03:13:48;95891.84;;;22.65;87.28
40502;BME280;29631;49.168;9.848;2023-07-24T03:16:14;95866.94;;;22.59;87.71
40502;BME280;29631;49.168;9.848;2023-07-24T03:18:40;95866.38;;;22.62;87.71
40502;BME280;29631;49.168;9.848;2023-07-24T03:21:05;95872.16;;;22.69;87.48
40502;BME280;29631;49.168;9.848;2023-07-24T03:23:31;95882.16;;;22.77;87.07
40502;BME280;29631;49.168;9.848;2023-07-24T03:25:57;95881.69;;;22.75;87.56
40502;BME280;29631;49.168;9.848;2023-07-24T03:28:22;95861.66;;;22.67;87.49
40502;BME280;29631;49.168;9.848;2023-07-24T03:30:48;95857.19;;;22.76;87.34
40502;BME280;29631;49.168;9.848;2023-07-24T03:33:14;95854.69;;;22.80;87.42
40502;BME280;29631;49.168;9.848;2023-07-24T03:35:40;95844.34;;;22.87;87.74
40502;BME280;29631;49.168;9.848;2023-07-24T03:38:05;95830.91;;;22.87;87.54
40502;BME280;29631;49.168;9.848;2023-07-24T03:40:31;95838.22;;;22.95;87.15
40502;BME280;29631;49.168;9.848;2023-07-24T03:42:57;95830.66;;;22.97;87.37
40502;BME280;29631;49.168;9.848;2023-07-24T03:45:23;95836.03;;;22.97;87.10
40502;BME280;29631;49.168;9.848;2023-07-24T03:47:49;95848.81;;;23.05;86.84
40502;BME280;29631;49.168;9.848;2023-07-24T03:50:15;95858.78;;;23.04;86.69
40502;BME280;29631;49.168;9.848;2023-07-24T03:52:40;95844.81;;;22.89;87.06
40502;BME280;29631;49.168;9.848;2023-07-24T03:55:07;95843.44;;;22.91;87.74
40502;BME280;29631;49.168;9.848;2023-07-24T03:57:33;95845.31;;;22.91;87.50
40502;BME280;29631;49.168;9.848;2023-07-24T04:00:00;95847.09;;;22.95;87.75
40502;BME280;29631;49.168;9.848;2023-07-24T04:02:25;95847.22;;;22.90;87.91
40502;BME280;29631;49.168;9.848;2023-07-24T04:04:51;95858.66;;;22.96;87.85
40502;BME280;29631;49.168;9.848;2023-07-24T04:07:17;95863.44;;;22.99;87.75
40502;BME280;29631;49.168;9.848;2023-07-24T04:09:42;95857.06;;;22.95;87.72
40502;BME280;29631;49.168;9.848;2023-07-24T04:12:08;95859.16;;;22.98;87.81
40502;BME280;29631;49.168;9.848;2023-07-24T04:14:34;95852.19;;;22.97;88.11
40502;BME280;29631;49.168;9.848;2023-07-24T04:16:59;95845.19;;;22.96;87.79
40502;BME280;29631;49.168;9.848;2023-07-24T04:19:25;95851.09;;;22.98;88.24
40502;BME280;29631;49.168;9.848;2023-07-24T04:21:51;95854.38;;;22.95;87.96
40502;BME280;29631;49.168;9.848;2023-07-24T04:24:17;95854.19;;;22.91;88.17
40502;BME280;29631;49.168;9.848;2023-07-24T04:26:42;95846.03;;;22.83;88.45
40502;BME280;29631;49.168;9.848;2023-07-24T04:29:08;95854.59;;;22.85;88.21
40502;BME280;29631;49.168;9.848;2023-07-24T04:31:34;95846.94;;;22.78;88.52
40502;BME280;29631;49.168;9.848;2023-07-24T04:33:59;95843.44;;;22.78;88.00
40502;BME280;29631;49.168;9.848;2023-07-24T04:36:25;95851.31;;;22.74;88.39
40502;BME280;29631;49.168;9.848;2023-07-24T04:38:51;95840.34;;;22.71;88.32
40502;BME280;29631;49.168;9.848;2023-07-24T04:41:17;95827.72;;;22.71;88.30
40502;BME280;29631;49.168;9.848;2023-07-24T04:43:42;95817.75;;;22.72;88.54
40502;BME280;29631;49.168;9.848;2023-07-24T04:46:08;95793.50;;;22.64;88.12
40502;BME280;29631;49.168;9.848;2023-07-24T04:48:34;95812.66;;;22.84;88.64
40502;BME280;29631;49.168;9.848;2023-07-24T04:50:59;95811.97;;;22.92;87.94
40502;BME280;29631;49.168;9.848;2023-07-24T04:53:25;95803.78;;;22.97;88.36
40502;BME280;29631;49.168;9.848;2023-07-24T04:55:51;95803.41;;;23.03;88.25
40502;BME280;29631;49.168;9.848;2023-07-24T04:58:17;95801.19;;;23.05;88.32
40502;BME280;29631;49.168;9.848;2023-07-24T05:00:42;95804.56;;;23.11;88.20
40502;BME280;29631;49.168;9.848;2023-07-24T05:03:09;95786.81;;;23.10;88.05
40502;BME280;29631;49.168;9.848;2023-07-24T05:05:37;95803.53;;;23.20;87.96
40502;BME280;29631;49.168;9.848;2023-07-24T05:08:04;95814.47;;;23.24;87.70
40502;BME280;29631;49.168;9.848;2023-07-24T05:10:35;95796.56;;;23.19;88.12
40502;BME280;29631;49.168;9.848;2023-07-24T05:13:01;95807.28;;;23.33;87.97
40502;BME280;29631;49.168;9.848;2023-07-24T05:15:27;95785.97;;;23.23;87.77
40502;BME280;29631;49.168;9.848;2023-07-24T05:17:53;95798.53;;;23.27;87.90
40502;BME280;29631;49.168;9.848;2023-07-24T05:20:18;95779.13;;;23.17;87.39
40502;BME280;29631;49.168;9.848;2023-07-24T05:22:44;95804.09;;;23.31;87.50
40502;BME280;29631;49.168;9.848;2023-07-24T05:25:10;95800.72;;;23.25;87.26
40502;BME280;29631;49.168;9.848;2023-07-24T05:27:36;95792.66;;;23.25;87.64
40502;BME280;29631;49.168;9.848;2023-07-24T05:30:04;95786.47;;;23.25;87.30
40502;BME280;29631;49.168;9.848;2023-07-24T05:32:30;95789.22;;;23.33;87.36
40502;BME280;29631;49.168;9.848;2023-07-24T05:34:55;95795.31;;;23.39;87.16
40502;BME280;29631;49.168;9.848;2023-07-24T05:37:21;95799.16;;;23.46;87.75
40502;BME280;29631;49.168;9.848;2023-07-24T05:39:47;95806.81;;;23.52;87.48
40502;BME280;29631;49.168;9.848;2023-07-24T05:42:12;95802.19;;;23.53;86.95
40502;BME280;29631;49.168;9.848;2023-07-24T05:44:38;95803.63;;;23.50;87.41
40502;BME280;29631;49.168;9.848;2023-07-24T05:47:04;95808.19;;;23.50;87.28
40502;BME280;29631;49.168;9.848;2023-07-24T05:49:29;95791.06;;;23.46;87.41
40502;BME280;29631;49.168;9.848;2023-07-24T05:51:55;95797.41;;;23.50;87.05
40502;BME280;29631;49.168;9.848;2023-07-24T05:54:22;95806.69;;;23.57;87.08
40502;BME280;29631;49.168;9.848;2023-07-24T05:56:48;95800.97;;;23.59;86.99
40502;BME280;29631;49.168;9.848;2023-07-24T05:59:14;95792.91;;;23.59;87.29
40502;BME280;29631;49.168;9.848;2023-07-24T06:01:40;95777.06;;;23.57;86.74
40502;BME280;29631;49.168;9.848;2023-07-24T06:04:05;95785.47;;;23.56;87.37
40502;BME280;29631;49.168;9.848;2023-07-24T06:06:33;95819.34;;;23.79;87.67
40502;BME280;29631;49.168;9.848;2023-07-24T06:08:58;95805.63;;;23.67;87.01
40502;BME280;29631;49.168;9.848;2023-07-24T06:11:24;95792.41;;;23.57;87.39
40502;BME280;29631;49.168;9.848;2023-07-24T06:13:51;95813.06;;;23.70;88.03
40502;BME280;29631;49.168;9.848;2023-07-24T06:16:18;95828.22;;;23.79;87.34
40502;BME280;29631;49.168;9.848;2023-07-24T06:18:44;95814.38;;;23.72;87.72
40502;BME280;29631;49.168;9.848;2023-07-24T06:21:10;95796.88;;;23.61;87.82
40502;BME280;29631;49.168;9.848;2023-07-24T06:23:35;95834.78;;;23.87;88.04
40502;BME280;29631;49.168;9.848;2023-07-24T06:26:01;95836.06;;;23.89;88.34
40502;BME280;29631;49.168;9.848;2023-07-24T06:28:27;95818.13;;;23.85;87.53
40502;BME280;29631;49.168;9.848;2023-07-24T06:30:54;95810.81;;;23.85;87.85
40502;BME280;29631;49.168;9.848;2023-07-24T06:33:20;95816.09;;;23.90;87.77
40502;BME280;29631;49.168;9.848;2023-07-24T06:35:50;95811.38;;;23.96;87.44
40502;BME280;29631;49.168;9.848;2023-07-24T06:38:16;95837.06;;;24.02;87.20
40502;BME280;29631;49.168;9.848;2023-07-24T06:40:42;95822.28;;;23.91;88.01
40502;BME280;29631;49.168;9.848;2023-07-24T06:43:08;95829.56;;;23.90;87.56
40502;BME280;29631;49.168;9.848;2023-07-24T06:45:33;95821.25;;;23.78;88.23
40502;BME280;29631;49.168;9.848;2023-07-24T06:47:59;95839.00;;;23.79;87.83
40502;BME280;29631;49.168;9.848;2023-07-24T06:50:25;95823.06;;;23.69;88.24
40502;BME280;29631;49.168;9.848;2023-07-24T06:52:51;95809.41;;;23.66;87.81
40502;BME280;29631;49.168;9.848;2023-07-24T06:55:19;95797.56;;;23.67;87.71
40502;BME280;29631;49.168;9.848;2023-07-24T06:57:45;95797.72;;;23.70;88.04
40502;BME280;29631;49.168;9.848;2023-07-24T07:00:11;95797.13;;;23.73;88.35
40502;BME280;29631;49.168;9.848;2023-07-24T07:02:38;95782.94;;;23.81;88.57
40502;BME280;29631;49.168;9.848;2023-07-24T07:05:04;95788.19;;;23.86;88.53
40502;BME280;29631;49.168;9.848;2023-07-24T07:07:31;95789.81;;;23.96;88.25
40502;BME280;29631;49.168;9.848;2023-07-24T07:09:56;95781.44;;;23.97;88.08
40502;BME280;29631;49.168;9.848;2023-07-24T07:12:22;95783.19;;;24.02;87.99
40502;BME280;29631;49.168;9.848;2023-07-24T07:14:48;95782.72;;;24.00;88.52
40502;BME280;29631;49.168;9.848;2023-07-24T07:17:13;95793.31;;;23.96;88.30
40502;BME280;29631;49.168;9.848;2023-07-24T07:19:39;95790.13;;;23.94;88.59
40502;BME280;29631;49.168;9.848;2023-07-24T07:22:05;95783.97;;;23.94;88.17
40502;BME280;29631;49.168;9.848;2023-07-24T07:24:31;95793.19;;;24.01;88.98
40502;BME280;29631;49.168;9.848;2023-07-24T07:26:57;95785.88;;;24.02;88.84
40502;BME280;29631;49.168;9.848;2023-07-24T07:29:22;95796.38;;;24.03;89.32
40502;BME280;29631;49.168;9.848;2023-07-24T07:31:48;95794.78;;;24.02;89.48
40502;BME280;29631;49.168;9.848;2023-07-24T07:34:14;95800.03;;;24.07;89.42
40502;BME280;29631;49.168;9.848;2023-07-24T07:36:39;95787.00;;;24.01;89.57
40502;BME280;29631;49.168;9.848;2023-07-24T07:39:05;95796.22;;;24.08;89.77
40502;BME280;29631;49.168;9.848;2023-07-24T07:41:31;95810.06;;;24.15;90.15
40502;BME280;29631;49.168;9.848;2023-07-24T07:43:57;95800.22;;;24.19;90.19
40502;BME280;29631;49.168;9.848;2023-07-24T07:46:23;95810.75;;;24.29;89.89
40502;BME280;29631;49.168;9.848;2023-07-24T07:48:49;95810.59;;;24.34;90.07
40502;BME280;29631;49.168;9.848;2023-07-24T07:51:15;95814.47;;;24.41;90.83
40502;BME280;29631;49.168;9.848;2023-07-24T07:53:41;95819.56;;;24.43;90.66
40502;BME280;29631;49.168;9.848;2023-07-24T07:56:06;95816.72;;;24.48;91.02
40502;BME280;29631;49.168;9.848;2023-07-24T07:58:33;95817.81;;;24.47;91.09
40502;BME280;29631;49.168;9.848;2023-07-24T08:01:04;95815.63;;;24.49;90.77
40502;BME280;29631;49.168;9.848;2023-07-24T08:03:30;95814.03;;;24.48;90.89
40502;BME280;29631;49.168;9.848;2023-07-24T08:05:59;95824.16;;;24.51;90.97
40502;BME280;29631;49.168;9.848;2023-07-24T08:08:25;95831.66;;;24.62;91.03
40502;BME280;29631;49.168;9.848;2023-07-24T08:10:51;95801.50;;;24.52;90.70
40502;BME280;29631;49.168;9.848;2023-07-24T08:13:17;95820.41;;;24.69;91.35
40502;BME280;29631;49.168;9.848;2023-07-24T08:15:43;95816.94;;;24.77;90.92
40502;BME280;29631;49.168;9.848;2023-07-24T08:18:09;95803.28;;;24.73;91.00
40502;BME280;29631;49.168;9.848;2023-07-24T08:20:36;95808.56;;;24.87;91.58
40502;BME280;29631;49.168;9.848;2023-07-24T08:23:03;95808.41;;;24.91;91.04
40502;BME280;29631;49.168;9.848;2023-07-24T08:25:29;95811.44;;;24.98;91.36
40502;BME280;29631;49.168;9.848;2023-07-24T08:27:54;95835.00;;;25.15;91.81
40502;BME280;29631;49.168;9.848;2023-07-24T08:30:20;95824.81;;;25.12;90.95
40502;BME280;29631;49.168;9.848;2023-07-24T08:32:46;95830.69;;;25.22;91.61
40502;BME280;29631;49.168;9.848;2023-07-24T08:35:12;95850.41;;;25.31;91.38
40502;BME280;29631;49.168;9.848;2023-07-24T08:37:47;95863.41;;;25.29;91.75
40502;BME280;29631;49.168;9.848;2023-07-24T08:40:12;95870.56;;;25.34;91.26
40502;BME280;29631;49.168;9.848;2023-07-24T08:42:43;95872.63;;;25.37;91.26
40502;BME280;29631;49.168;9.848;2023-07-24T08:45:12;95853.56;;;25.33;91.19
40502;BME280;29631;49.168;9.848;2023-07-24T08:47:43;95869.16;;;25.36;91.31
40502;BME280;29631;49.168;9.848;2023-07-24T08:50:12;95860.88;;;25.33;92.20
40502;BME280;29631;49.168;9.848;2023-07-24T08:52:41;95870.25;;;25.35;92.39
40502;BME280;29631;49.168;9.848;2023-07-24T08:55:08;95842.31;;;25.23;92.80
40502;BME280;29631;49.168;9.848;2023-07-24T08:57:35;95842.00;;;25.24;93.12
40502;BME280;29631;49.168;9.848;2023-07-24T09:00:02;95852.63;;;25.29;93.25
40502;BME280;29631;49.168;9.848;2023-07-24T09:02:34;95836.09;;;25.31;93.74
40502;BME280;29631;49.168;9.848;2023-07-24T09:05:00;95834.53;;;25.38;93.34
40502;BME280;29631;49.168;9.848;2023-07-24T09:07:26;95819.94;;;25.39;93.48
40502;BME280;29631;49.168;9.848;2023-07-24T09:09:52;95816.41;;;25.47;93.52
40502;BME280;29631;49.168;9.848;2023-07-24T09:12:18;95801.47;;;25.41;93.46
40502;BME280;29631;49.168;9.848;2023-07-24T09:14:44;95813.41;;;25.49;93.48
40502;BME280;29631;49.168;9.848;2023-07-24T09:17:11;95798.94;;;25.53;93.71
40502;BME280;29631;49.168;9.848;2023-07-24T09:19:38;95774.00;;;25.56;93.75
40502;BME280;29631;49.168;9.848;2023-07-24T09:22:16;95764.31;;;25.55;94.17
40502;BME280;29631;49.168;9.848;2023-07-24T09:24:50;95792.72;;;25.61;94.21
40502;BME280;29631;49.168;9.848;2023-07-24T09:27:17;95782.28;;;25.51;93.63
40502;BME280;29631;49.168;9.848;2023-07-24T09:29:43;95760.19;;;25.49;93.60
40502;BME280;29631;49.168;9.848;2023-07-24T09:32:20;95769.38;;;25.57;94.04
40502;BME280;29631;49.168;9.848;2023-07-24T09:34:48;95777.63;;;25.60;93.80
40502;BME280;29631;49.168;9.848;2023-07-24T09:37:30;95781.94;;;25.61;93.90
40502;BME280;29631;49.168;9.848;2023-07-24T09:39:56;95780.19;;;25.65;94.03
40502;BME280;29631;49.168;9.848;2023-07-24T09:42:30;95780.66;;;25.67;94.02
40502;BME280;29631;49.168;9.848;2023-07-24T09:44:56;95744.91;;;25.53;94.21
40502;BME280;29631;49.168;9.848;2023-07-24T09:47:22;95771.25;;;25.73;93.92
40502;BME280;29631;49.168;9.848;2023-07-24T09:49:48;95773.19;;;25.81;93.98
40502;BME280;29631;49.168;9.848;2023-07-24T09:52:14;95763.97;;;25.82;94.04
40502;BME280;29631;49.168;9.848;2023-07-24T09:54:55;95778.38;;;25.94;94.03
40502;BME280;29631;49.168;9.848;2023-07-24T09:57:22;95776.00;;;25.93;94.06
40502;BME280;29631;49.168;9.848;2023-07-24T09:59:49;95779.34;;;25.98;94.34
40502;BME280;29631;49.168;9.848;2023-07-24T10:02:17;95773.59;;;26.00;94.45
40502;BME280;29631;49.168;9.848;2023-07-24T10:04:44;95777.28;;;26.04;94.52
40502;BME280;29631;49.168;9.848;2023-07-24T10:07:10;95770.91;;;26.00;94.64
40502;BME280;29631;49.168;9.848;2023-07-24T10:09:36;95792.34;;;26.13;94.61
40502;BME280;29631;49.168;9.848;2023-07-24T10:12:04;95795.78;;;26.22;94.65
40502;BME280;29631;49.168;9.848;2023-07-24T10:14:30;95800.41;;;26.22;94.90
40502;BME280;29631;49.168;9.848;2023-07-24T10:16:57;95812.81;;;26.23;94.72
40502;BME280;29631;49.168;9.848;2023-07-24T10:19:22;95818.38;;;26.26;94.38
40502;BME280;29631;49.168;9.848;2023-07-24T10:21:50;95822.78;;;26.31;94.24
40502;BME280;29631;49.168;9.848;2023-07-24T10:24:16;95832.69;;;26.27;93.73
40502;BME280;29631;49.168;9.848;2023-07-24T10:26:42;95817.13;;;26.15;93.96
40502;BME280;29631;49.168;9.848;2023-07-24T10:29:13;95829.81;;;26.23;94.12
40502;BME280;29631;49.168;9.848;2023-07-24T10:31:39;95839.38;;;26.21;93.70
40502;BME280;29631;49.168;9.848;2023-07-24T10:34:07;95847.00;;;26.19;93.73
40502;BME280;29631;49.168;9.848;2023-07-24T10:36:36;95850.81;;;26.18;93.61
40502;BME280;29631;49.168;9.848;2023-07-24T10:39:16;95855.78;;;26.16;93.71
40502;BME280;29631;49.168;9.848;2023-07-24T10:41:46;95845.59;;;26.13;93.03
40502;BME280;29631;49.168;9.848;2023-07-24T10:44:12;95837.00;;;26.11;93.32
40502;BME280;29631;49.168;9.848;2023-07-24T10:46:41;95844.47;;;26.14;93.07
40502;BME280;29631;49.168;9.848;2023-07-24T10:49:11;95851.31;;;26.11;92.47
40502;BME280;29631;49.168;9.848;2023-07-24T10:51:37;95852.59;;;26.14;92.66
40502;BME280;29631;49.168;9.848;2023-07-24T10:54:06;95846.88;;;26.07;92.57
40502;BME280;29631;49.168;9.848;2023-07-24T10:56:32;95832.09;;;26.04;92.54
40502;BME280;29631;49.168;9.848;2023-07-24T10:59:05;95853.88;;;26.08;93.13
40502;BME280;29631;49.168;9.848;2023-07-24T11:01:32;95839.09;;;26.05;93.10
40502;BME280;29631;49.168;9.848;2023-07-24T11:03:58;95849.59;;;26.07;92.87
40502;BME280;29631;49.168;9.848;2023-07-24T11:06:25;95859.91;;;26.05;92.83
40502;BME280;29631;49.168;9.848;2023-07-24T11:08:52;95820.53;;;25.87;92.97
40502;BME280;29631;49.168;9.848;2023-07-24T11:11:18;95843.38;;;25.98;93.43
40502;BME280;29631;49.168;9.848;2023-07-24T11:13:44;95852.63;;;25.97;93.47
40502;BME280;29631;49.168;9.848;2023-07-24T11:16:10;95854.84;;;25.95;93.53
40502;BME280;29631;49.168;9.848;2023-07-24T11:18:49;95856.13;;;25.89;93.57
40502;BME280;29631;49.168;9.848;2023-07-24T11:21:17;95853.63;;;25.84;93.79
40502;BME280;29631;49.168;9.848;2023-07-24T11:23:54;95857.59;;;25.78;94.41
40502;BME280;29631;49.168;9.848;2023-07-24T11:26:22;95852.81;;;25.83;94.79
40502;BME280;29631;49.168;9.848;2023-07-24T11:28:50;95849.78;;;25.76;94.94
40502;BME280;29631;49.168;9.848;2023-07-24T11:31:16;95835.50;;;25.76;94.68
40502;BME280;29631;49.168;9.848;2023-07-24T11:33:45;95836.09;;;25.73;94.76
40502;BME280;29631;49.168;9.848;2023-07-24T11:36:12;95822.59;;;25.64;94.83
40502;BME280;29631;49.168;9.848;2023-07-24T11:38:39;95806.41;;;25.56;95.06
40502;BME280;29631;49.168;9.848;2023-07-24T11:41:05;95788.13;;;25.53;95.25
40502;BME280;29631;49.168;9.848;2023-07-24T11:43:32;95762.41;;;25.47;95.30
40502;BME280;29631;49.168;9.848;2023-07-24T11:45:57;95778.16;;;25.45;95.94
40502;BME280;29631;49.168;9.848;2023-07-24T11:48:24;95784.84;;;25.39;96.28
40502;BME280;29631;49.168;9.848;2023-07-24T11:50:55;95777.34;;;25.36;96.16
40502;BME280;29631;49.168;9.848;2023-07-24T11:53:30;95761.47;;;25.35;96.16
40502;BME280;29631;49.168;9.848;2023-07-24T11:55:59;95742.59;;;25.35;96.27
40502;BME280;29631;49.168;9.848;2023-07-24T11:58:30;95730.19;;;25.34;96.09
40502;BME280;29631;49.168;9.848;2023-07-24T12:00:56;95720.69;;;25.28;96.29
40502;BME280;29631;49.168;9.848;2023-07-24T12:03:27;95724.00;;;25.16;96.62
40502;BME280;29631;49.168;9.848;2023-07-24T12:05:53;95738.63;;;25.15;97.13
40502;BME280;29631;49.168;9.848;2023-07-24T12:08:34;95735.47;;;25.13;97.17
40502;BME280;29631;49.168;9.848;2023-07-24T12:11:01;95732.09;;;25.16;97.29
40502;BME280;29631;49.168;9.848;2023-07-24T12:13:27;95715.75;;;25.21;97.01
40502;BME280;29631;49.168;9.848;2023-07-24T12:15:54;95698.13;;;25.32;96.88
40502;BME280;29631;49.168;9.848;2023-07-24T12:18:20;95694.16;;;25.38;96.91
40502;BME280;29631;49.168;9.848;2023-07-24T12:20:45;95720.97;;;25.43;96.95
40502;BME280;29631;49.168;9.848;2023-07-24T12:23:11;95746.50;;;25.54;97.10
40502;BME280;29631;49.168;9.848;2023-07-24T12:25:37;95760.50;;;25.56;97.38
40502;BME280;29631;49.168;9.848;2023-07-24T12:28:03;95749.03;;;25.59;97.51
40502;BME280;29631;49.168;9.848;2023-07-24T12:30:28;95740.00;;;25.55;97.51
40502;BME280;29631;49.168;9.848;2023-07-24T12:32:54;95755.56;;;25.66;97.46
40502;BME280;29631;49.168;9.848;2023-07-24T12:35:20;95727.59;;;25.63;97.39
40502;BME280;29631;49.168;9.848;2023-07-24T12:37:45;95729.97;;;25.64;96.84
40502;BME280;29631;49.168;9.848;2023-07-24T12:40:12;95718.88;;;25.57;96.97
40502;BME280;29631;49.168;9.848;2023-07-24T12:42:38;95731.41;;;25.62;96.60
40502;BME280;29631;49.168;9.848;2023-07-24T12:45:04;95713.00;;;25.55;96.67
40502;BME280;29631;49.168;9.848;2023-07-24T12:47:32;95737.31;;;25.55;96.57
40502;BME280;29631;49.168;9.848;2023-07-24T12:49:58;95744.00;;;25.49;96.38
40502;BME280;29631;49.168;9.848;2023-07-24T12:52:25;95740.19;;;25.42;95.92
40502;BME280;29631;49.168;9.848;2023-07-24T12:54:51;95755.59;;;25.41;96.21
40502;BME280;29631;49.168;9.848;2023-07-24T12:57:17;95755.91;;;25.40;96.09
40502;BME280;29631;49.168;9.848;2023-07-24T12:59:43;95756.25;;;25.38;95.35
40502;BME280;29631;49.168;9.848;2023-07-24T13:02:09;95745.28;;;25.26;95.44